Time;durP1;ratioP1;P1;durP2;ratioP2;P2;SDS_P1;SDS_P2;PMS_P1;PMS_P2;Temp;Humidity;BMP_temperature;BMP_pressure;BME280_temperature;BME280_humidity;BME280_pressure;Samples;Min_cycle;Max_cycle;Signal;HPM_P1;HPM_P2
2023/08/04 00:01:29;;;;;;;;;;;13.50;99.90;;;;;;20922084;28;20370;-74
2023/08/04 00:11:30;;;;;;;;;;;13.60;99.90;;;;;;20921018;28;19921;-74
2023/08/04 00:21:30;;;;;;;;;;;13.60;99.90;;;;;;20919789;28;19925;-74
2023/08/04 00:31:31;;;;;;;;;;;13.60;99.90;;;;;;20920473;28;20294;-74
2023/08/04 00:41:33;;;;;;;;;;;13.50;99.90;;;;;;20918477;28;19971;-74
2023/08/04 00:51:34;;;;;;;;;;;13.20;99.90;;;;;;20928411;28;19912;-73
2023/08/04 01:01:35;;;;;;;;;;;13.30;99.90;;;;;;20916963;28;20373;-74
2023/08/04 01:11:42;;;;;;;;;;;13.60;99.90;;;;;;20916917;28;19952;-74
2023/08/04 01:21:44;;;;;;;;;;;13.80;99.90;;;;;;20916199;28;20382;-74
2023/08/04 01:31:45;;;;;;;;;;;13.60;99.90;;;;;;20917692;28;19940;-73
2023/08/04 01:41:45;;;;;;;;;;;13.70;99.90;;;;;;20913479;28;19920;-74
2023/08/04 01:51:47;;;;;;;;;;;13.80;99.90;;;;;;20912874;28;19912;-74
2023/08/04 02:01:48;;;;;;;;;;;13.90;99.90;;;;;;20912366;28;19959;-74
2023/08/04 02:11:49;;;;;;;;;;;13.90;99.90;;;;;;20909384;28;19925;-74
2023/08/04 02:21:50;;;;;;;;;;;13.90;99.90;;;;;;20910935;28;20410;-74
2023/08/04 02:31:50;;;;;;;;;;;14.00;99.90;;;;;;20909654;28;19959;-74
2023/08/04 02:41:51;;;;;;;;;;;14.00;99.90;;;;;;20909123;28;19940;-74
2023/08/04 02:51:51;;;;;;;;;;;14.10;99.90;;;;;;20909471;28;19955;-73
2023/08/04 03:01:52;;;;;;;;;;;14.20;99.90;;;;;;20909334;28;19917;-73
2023/08/04 03:11:53;;;;;;;;;;;14.30;99.90;;;;;;20918777;28;19995;-73
2023/08/04 03:21:53;;;;;;;;;;;14.10;99.90;;;;;;20908612;28;19924;-74
2023/08/04 03:31:54;;;;;;;;;;;14.10;99.90;;;;;;20909197;28;19912;-74
2023/08/04 03:41:55;;;;;;;;;;;13.80;99.90;;;;;;20907489;28;19917;-74
2023/08/04 03:51:55;;;;;;;;;;;13.60;99.90;;;;;;20905653;28;19917;-74
2023/08/04 04:01:56;;;;;;;;;;;13.70;99.90;;;;;;20906571;28;19943;-74
2023/08/04 04:11:57;;;;;;;;;;;13.60;99.90;;;;;;20913440;28;20402;-74
2023/08/04 04:21:57;;;;;;;;;;;13.50;99.90;;;;;;20904624;28;19917;-74
2023/08/04 04:31:58;;;;;;;;;;;13.60;99.90;;;;;;20912886;28;20406;-74
2023/08/04 04:41:59;;;;;;;;;;;13.70;99.90;;;;;;20920055;28;19917;-75
2023/08/04 04:51:59;;;;;;;;;;;13.80;99.90;;;;;;20926734;28;20347;-75
2023/08/04 05:02:00;;;;;;;;;;;14.00;99.90;;;;;;20917698;28;19917;-75
2023/08/04 05:12:01;;;;;;;;;;;14.10;99.90;;;;;;20920571;22;20397;-76
2023/08/04 05:22:01;;;;;;;;;;;14.10;99.90;;;;;;20916233;28;19928;-75
2023/08/04 05:32:02;;;;;;;;;;;13.90;99.90;;;;;;20903635;28;20402;-76
2023/08/04 05:42:03;;;;;;;;;;;14.00;99.90;;;;;;20912253;28;19924;-76
2023/08/04 05:52:04;;;;;;;;;;;14.10;99.90;;;;;;20912421;28;20394;-76
2023/08/04 06:02:04;;;;;;;;;;;14.40;99.90;;;;;;20913644;28;19917;-77
2023/08/04 06:12:05;;;;;;;;;;;14.70;99.90;;;;;;20883418;28;19956;-76
2023/08/04 06:22:07;;;;;;;;;;;14.70;99.90;;;;;;20829429;28;19924;-76
2023/08/04 06:32:08;;;;;;;;;;;14.90;99.90;;;;;;20828306;28;20371;-76
2023/08/04 06:42:08;;;;;;;;;;;15.10;99.90;;;;;;20855432;28;19940;-76
2023/08/04 06:52:09;;;;;;;;;;;15.50;99.90;;;;;;20908020;28;20367;-77
2023/08/04 07:02:10;;;;;;;;;;;15.30;99.90;;;;;;20910199;28;20428;-76
2023/08/04 07:12:12;;;;;;;;;;;15.70;99.90;;;;;;20907651;28;20395;-75
2023/08/04 07:22:13;;;;;;;;;;;15.90;99.90;;;;;;20908380;28;19939;-76
2023/08/04 07:32:14;;;;;;;;;;;16.20;99.90;;;;;;20907403;28;20344;-76
2023/08/04 07:42:14;;;;;;;;;;;16.40;99.90;;;;;;20878304;28;19924;-76
2023/08/04 07:52:15;;;;;;;;;;;16.50;99.90;;;;;;20824654;28;19913;-76
2023/08/04 08:02:16;;;;;;;;;;;16.10;99.90;;;;;;20825827;28;20319;-77
2023/08/04 08:12:16;;;;;;;;;;;16.10;99.90;;;;;;20838441;28;19924;-76
2023/08/04 08:22:17;;;;;;;;;;;15.90;99.90;;;;;;20840232;28;20012;-76
2023/08/04 08:32:17;;;;;;;;;;;15.80;99.90;;;;;;20838219;28;20024;-77
2023/08/04 08:42:18;;;;;;;;;;;15.70;99.90;;;;;;20865764;28;20007;-76
2023/08/04 08:52:21;;;;;;;;;;;15.80;99.90;;;;;;20919164;28;20331;-76
2023/08/04 09:02:22;;;;;;;;;;;16.30;99.90;;;;;;20918634;28;19921;-76
2023/08/04 09:12:25;;;;;;;;;;;18.00;99.90;;;;;;20917142;28;19970;-76
2023/08/04 09:22:26;;;;;;;;;;;19.70;99.90;;;;;;20916840;28;19924;-76
2023/08/04 09:32:27;;;;;;;;;;;19.30;99.90;;;;;;20916060;28;19913;-75
2023/08/04 09:42:28;;;;;;;;;;;19.40;99.90;;;;;;20913802;28;19920;-76
2023/08/04 09:52:30;;;;;;;;;;;19.60;99.90;;;;;;20914472;28;20561;-76
2023/08/04 10:02:30;;;;;;;;;;;19.10;99.90;;;;;;20913169;28;19917;-76
2023/08/04 10:12:32;;;;;;;;;;;18.80;99.90;;;;;;20912433;28;19996;-77
2023/08/04 10:22:33;;;;;;;;;;;19.40;99.90;;;;;;20911398;28;19917;-77
2023/08/04 10:32:40;;;;;;;;;;;20.70;99.90;;;;;;20911414;28;19919;-77
2023/08/04 10:42:56;;;;;;;;;;;21.00;99.90;;;;;;20911664;28;19917;-77
2023/08/04 10:52:57;;;;;;;;;;;22.20;99.90;;;;;;20910110;28;19917;-77
2023/08/04 11:02:57;;;;;;;;;;;21.30;99.90;;;;;;20909187;28;19924;-77
2023/08/04 11:12:58;;;;;;;;;;;21.60;99.90;;;;;;20926012;23;19951;-78
2023/08/04 11:22:59;;;;;;;;;;;20.70;99.90;;;;;;20826554;28;19926;-79
2023/08/04 11:33:00;;;;;;;;;;;21.90;99.90;;;;;;20766619;28;19968;-78
2023/08/04 11:43:01;;;;;;;;;;;21.00;99.90;;;;;;20812691;28;19971;-77
2023/08/04 11:53:02;;;;;;;;;;;20.20;99.90;;;;;;20864357;28;20398;-78
2023/08/04 12:03:03;;;;;;;;;;;21.00;99.90;;;;;;20861524;28;19917;-77
2023/08/04 12:13:04;;;;;;;;;;;21.60;99.90;;;;;;20852654;28;19955;-78
2023/08/04 12:23:12;;;;;;;;;;;22.20;99.90;;;;;;20861706;28;19917;-78
2023/08/04 12:33:12;;;;;;;;;;;22.20;99.90;;;;;;20875779;28;19913;-78
2023/08/04 12:43:13;;;;;;;;;;;21.80;99.90;;;;;;20862996;28;20012;-78
2023/08/04 12:53:14;;;;;;;;;;;23.60;99.90;;;;;;20865771;28;19913;-78
2023/08/04 13:03:15;;;;;;;;;;;22.80;99.90;;;;;;20861460;28;19917;-78
2023/08/04 13:13:15;;;;;;;;;;;22.90;99.90;;;;;;20850294;28;19916;-77
2023/08/04 13:23:16;;;;;;;;;;;22.00;99.90;;;;;;20802068;28;20004;-78
2023/08/04 13:33:17;;;;;;;;;;;21.40;99.90;;;;;;20821868;28;20043;-78
2023/08/04 13:43:17;;;;;;;;;;;21.20;99.90;;;;;;20830972;28;19917;-77
2023/08/04 13:53:18;;;;;;;;;;;20.80;99.90;;;;;;20846639;28;19951;-77
2023/08/04 14:03:19;;;;;;;;;;;20.50;99.90;;;;;;20832506;28;19925;-77
2023/08/04 14:13:20;;;;;;;;;;;20.20;99.90;;;;;;20837037;28;19917;-78
2023/08/04 14:23:20;;;;;;;;;;;20.60;99.90;;;;;;20834688;28;19921;-77
2023/08/04 14:33:21;;;;;;;;;;;20.60;99.90;;;;;;20811318;28;19960;-77
2023/08/04 14:43:22;;;;;;;;;;;21.80;99.90;;;;;;20780142;28;19917;-77
2023/08/04 14:53:22;;;;;;;;;;;21.70;99.90;;;;;;20756020;28;19913;-78
2023/08/04 15:03:23;;;;;;;;;;;19.50;99.90;;;;;;20755930;28;19917;-77
2023/08/04 15:13:24;;;;;;;;;;;19.60;99.90;;;;;;20797419;28;20015;-78
2023/08/04 15:23:24;;;;;;;;;;;19.00;99.90;;;;;;20839270;28;19917;-78
2023/08/04 15:33:25;;;;;;;;;;;19.10;99.90;;;;;;20842107;28;19981;-78
2023/08/04 15:43:26;;;;;;;;;;;20.30;99.90;;;;;;20840315;28;20411;-78
2023/08/04 15:53:27;;;;;;;;;;;20.60;99.90;;;;;;20841193;28;19936;-76
2023/08/04 16:03:28;;;;;;;;;;;20.50;99.90;;;;;;20851205;28;19917;-79
2023/08/04 16:13:29;;;;;;;;;;;20.50;99.90;;;;;;20845059;28;19967;-78
2023/08/04 16:23:30;;;;;;;;;;;20.30;99.90;;;;;;20841553;28;19925;-80
2023/08/04 16:33:30;;;;;;;;;;;20.30;99.90;;;;;;20868886;28;19913;-77
2023/08/04 16:43:31;;;;;;;;;;;20.20;99.90;;;;;;20842907;28;19924;-78
2023/08/04 16:53:32;;;;;;;;;;;20.00;99.90;;;;;;20852814;28;19987;-78
2023/08/04 17:03:33;;;;;;;;;;;19.70;99.90;;;;;;20857553;28;19917;-80
2023/08/04 17:13:34;;;;;;;;;;;19.60;99.90;;;;;;20875734;22;20019;-73
2023/08/04 17:23:35;;;;;;;;;;;19.10;99.90;;;;;;20808795;28;20339;-73
2023/08/04 17:33:35;;;;;;;;;;;19.20;99.90;;;;;;20751451;28;19982;-72
2023/08/04 17:43:36;;;;;;;;;;;19.20;99.90;;;;;;20790942;28;19963;-73
2023/08/04 17:53:38;;;;;;;;;;;18.90;99.90;;;;;;20828644;28;19935;-72
2023/08/04 18:03:38;;;;;;;;;;;18.70;99.90;;;;;;20808520;28;19984;-73
2023/08/04 18:13:39;;;;;;;;;;;18.60;99.90;;;;;;20819253;28;19917;-73
2023/08/04 18:23:40;;;;;;;;;;;18.40;99.90;;;;;;20819773;28;20417;-73
2023/08/04 18:33:40;;;;;;;;;;;17.90;99.90;;;;;;20828721;28;20370;-73
2023/08/04 18:43:41;;;;;;;;;;;17.60;99.90;;;;;;20827867;28;20302;-73
2023/08/04 18:53:42;;;;;;;;;;;17.20;99.90;;;;;;20826816;28;19913;-73
2023/08/04 19:03:42;;;;;;;;;;;17.10;99.90;;;;;;20827096;28;19939;-73
2023/08/04 19:13:43;;;;;;;;;;;17.10;99.90;;;;;;20779043;28;19917;-73
2023/08/04 19:23:44;;;;;;;;;;;16.90;99.90;;;;;;20805706;28;19923;-73
2023/08/04 19:33:45;;;;;;;;;;;16.70;99.90;;;;;;20793357;28;20348;-73
2023/08/04 19:43:46;;;;;;;;;;;16.60;99.90;;;;;;20822914;28;20007;-73
2023/08/04 19:53:47;;;;;;;;;;;16.40;99.90;;;;;;20810729;28;19963;-73
2023/08/04 20:03:47;;;;;;;;;;;16.20;99.90;;;;;;20798377;28;19939;-74
2023/08/04 20:13:49;;;;;;;;;;;16.10;99.90;;;;;;20804998;28;19956;-73
2023/08/04 20:23:50;;;;;;;;;;;16.00;99.90;;;;;;20813829;28;19917;-74
2023/08/04 20:33:54;;;;;;;;;;;15.80;99.90;;;;;;20816256;28;20426;-74
2023/08/04 20:43:55;;;;;;;;;;;15.70;99.90;;;;;;20833928;28;19917;-74
2023/08/04 20:53:55;;;;;;;;;;;15.60;99.90;;;;;;20831051;28;20047;-74
2023/08/04 21:03:56;;;;;;;;;;;15.60;99.90;;;;;;20831077;28;20441;-74
2023/08/04 21:13:57;;;;;;;;;;;15.50;99.90;;;;;;20803969;28;19931;-74
2023/08/04 21:23:57;;;;;;;;;;;15.50;99.90;;;;;;20813000;28;19922;-74
2023/08/04 21:33:58;;;;;;;;;;;15.40;99.90;;;;;;20822128;28;19916;-74
2023/08/04 21:43:58;;;;;;;;;;;15.30;99.90;;;;;;20806061;28;19918;-74
2023/08/04 21:53:59;;;;;;;;;;;15.20;99.90;;;;;;20805861;28;20353;-74
2023/08/04 22:04:00;;;;;;;;;;;15.10;99.90;;;;;;20838392;28;20508;-75
2023/08/04 22:14:01;;;;;;;;;;;15.10;99.90;;;;;;20814137;28;19928;-75
2023/08/04 22:24:02;;;;;;;;;;;15.00;99.90;;;;;;20787535;28;19918;-74
2023/08/04 22:34:03;;;;;;;;;;;14.90;99.90;;;;;;20807884;28;19987;-74
2023/08/04 22:44:03;;;;;;;;;;;14.90;99.90;;;;;;20817891;28;20325;-74
2023/08/04 22:54:04;;;;;;;;;;;14.90;99.90;;;;;;20827884;28;19928;-74
2023/08/04 23:04:05;;;;;;;;;;;14.70;99.90;;;;;;20828073;28;19962;-74
2023/08/04 23:14:05;;;;;;;;;;;14.80;99.90;;;;;;20848629;22;20355;-77
2023/08/04 23:24:06;;;;;;;;;;;14.70;99.90;;;;;;20800978;28;19952;-77
2023/08/04 23:34:06;;;;;;;;;;;14.80;99.90;;;;;;20751536;28;20315;-77
2023/08/04 23:44:07;;;;;;;;;;;14.70;99.90;;;;;;20814449;28;19924;-77
2023/08/04 23:54:08;;;;;;;;;;;14.70;99.90;;;;;;20867547;28;19923;-77
